sensor_id;sensor_type;location;lat;lon;timestamp;P1;durP1;ratioP1;P2;durP2;ratioP2
45049;SDS011;61798;48.048;-1.928;2023-03-01T02:29:33;43.42;;;27.65;;
45049;SDS011;61798;48.048;-1.928;2023-03-01T02:31:39;44.97;;;29.33;;
45049;SDS011;61798;48.048;-1.928;2023-03-01T02:33:48;46.20;;;27.92;;
45049;SDS011;61798;48.048;-1.928;2023-03-01T02:35:55;42.67;;;27.92;;
45049;SDS011;61798;48.048;-1.928;2023-03-01T02:38:02;40.13;;;27.20;;
45049;SDS011;61798;48.048;-1.928;2023-03-01T02:40:13;41.22;;;26.38;;
45049;SDS011;61798;48.048;-1.928;2023-03-01T02:42:23;37.97;;;25.67;;
45049;SDS011;61798;48.048;-1.928;2023-03-01T02:44:36;39.53;;;25.92;;
45049;SDS011;61798;48.048;-1.928;2023-03-01T02:46:44;40.60;;;26.95;;
45049;SDS011;61798;48.048;-1.928;2023-03-01T02:52:04;45.85;;;28.90;;
45049;SDS011;61798;48.048;-1.928;2023-03-01T02:56:41;43.38;;;27.23;;
45049;SDS011;61798;48.048;-1.928;2023-03-01T02:58:56;39.88;;;27.15;;
45049;SDS011;61798;48.048;-1.928;2023-03-01T03:03:48;38.83;;;25.38;;
45049;SDS011;61798;48.048;-1.928;2023-03-01T03:08:47;42.03;;;25.58;;
45049;SDS011;61798;48.048;-1.928;2023-03-01T03:11:20;38.88;;;25.30;;
45049;SDS011;61798;48.048;-1.928;2023-03-01T03:13:42;40.85;;;26.98;;
45049;SDS011;61798;48.048;-1.928;2023-03-01T03:16:02;39.60;;;25.52;;
45049;SDS011;61798;48.048;-1.928;2023-03-01T03:18:24;41.25;;;26.70;;
45049;SDS011;61798;48.048;-1.928;2023-03-01T03:20:35;36.47;;;25.02;;
45049;SDS011;61798;48.048;-1.928;2023-03-01T03:23:01;42.17;;;26.50;;
45049;SDS011;61798;48.048;-1.928;2023-03-01T03:25:08;34.67;;;24.70;;
45049;SDS011;61798;48.048;-1.928;2023-03-01T03:27:20;37.42;;;24.98;;
45049;SDS011;61798;48.048;-1.928;2023-03-01T03:29:33;34.65;;;24.27;;
45049;SDS011;61798;48.048;-1.928;2023-03-01T03:31:39;37.67;;;25.35;;
45049;SDS011;61798;48.048;-1.928;2023-03-01T03:34:00;37.45;;;23.88;;
45049;SDS011;61798;48.048;-1.928;2023-03-01T03:36:16;36.58;;;24.70;;
45049;SDS011;61798;48.048;-1.928;2023-03-01T03:39:00;35.92;;;23.80;;
45049;SDS011;61798;48.048;-1.928;2023-03-01T03:41:22;35.72;;;24.67;;
45049;SDS011;61798;48.048;-1.928;2023-03-01T03:43:45;35.90;;;24.23;;
45049;SDS011;61798;48.048;-1.928;2023-03-01T03:45:58;38.10;;;25.10;;
45049;SDS011;61798;48.048;-1.928;2023-03-01T03:48:20;36.75;;;24.42;;
45049;SDS011;61798;48.048;-1.928;2023-03-01T03:50:41;35.45;;;24.63;;
45049;SDS011;61798;48.048;-1.928;2023-03-01T03:52:53;33.70;;;23.45;;
45049;SDS011;61798;48.048;-1.928;2023-03-01T03:54:59;35.92;;;24.45;;
45049;SDS011;61798;48.048;-1.928;2023-03-01T03:57:08;34.10;;;24.48;;
45049;SDS011;61798;48.048;-1.928;2023-03-01T03:59:16;36.17;;;24.45;;
45049;SDS011;61798;48.048;-1.928;2023-03-01T04:01:22;39.35;;;25.17;;
45049;SDS011;61798;48.048;-1.928;2023-03-01T04:03:29;33.88;;;24.23;;
45049;SDS011;61798;48.048;-1.928;2023-03-01T04:05:38;32.75;;;23.55;;
45049;SDS011;61798;48.048;-1.928;2023-03-01T04:07:47;38.45;;;22.38;;
45049;SDS011;61798;48.048;-1.928;2023-03-01T04:09:53;34.10;;;23.55;;
45049;SDS011;61798;48.048;-1.928;2023-03-01T04:12:01;32.50;;;22.55;;
45049;SDS011;61798;48.048;-1.928;2023-03-01T04:14:09;33.53;;;23.05;;
45049;SDS011;61798;48.048;-1.928;2023-03-01T04:16:17;32.35;;;23.17;;
45049;SDS011;61798;48.048;-1.928;2023-03-01T04:18:28;36.90;;;22.95;;
45049;SDS011;61798;48.048;-1.928;2023-03-01T04:20:37;33.50;;;23.27;;
45049;SDS011;61798;48.048;-1.928;2023-03-01T04:22:45;31.33;;;22.23;;
45049;SDS011;61798;48.048;-1.928;2023-03-01T04:24:54;31.67;;;22.00;;
45049;SDS011;61798;48.048;-1.928;2023-03-01T04:27:02;33.90;;;23.52;;
45049;SDS011;61798;48.048;-1.928;2023-03-01T04:29:08;31.98;;;22.08;;
45049;SDS011;61798;48.048;-1.928;2023-03-01T04:31:18;34.90;;;23.30;;
45049;SDS011;61798;48.048;-1.928;2023-03-01T04:33:26;33.35;;;22.98;;
45049;SDS011;61798;48.048;-1.928;2023-03-01T04:35:32;32.17;;;22.50;;
45049;SDS011;61798;48.048;-1.928;2023-03-01T04:37:40;33.17;;;23.13;;
45049;SDS011;61798;48.048;-1.928;2023-03-01T04:39:47;35.08;;;23.27;;
45049;SDS011;61798;48.048;-1.928;2023-03-01T04:41:53;35.72;;;24.00;;
45049;SDS011;61798;48.048;-1.928;2023-03-01T04:44:02;33.53;;;23.23;;
45049;SDS011;61798;48.048;-1.928;2023-03-01T04:46:13;33.80;;;23.13;;
45049;SDS011;61798;48.048;-1.928;2023-03-01T04:48:22;32.58;;;23.20;;
45049;SDS011;61798;48.048;-1.928;2023-03-01T04:50:28;33.00;;;23.17;;
45049;SDS011;61798;48.048;-1.928;2023-03-01T04:52:38;33.97;;;22.92;;
45049;SDS011;61798;48.048;-1.928;2023-03-01T04:54:46;34.65;;;24.45;;
45049;SDS011;61798;48.048;-1.928;2023-03-01T04:56:55;35.08;;;23.67;;
45049;SDS011;61798;48.048;-1.928;2023-03-01T04:59:11;33.65;;;23.17;;
45049;SDS011;61798;48.048;-1.928;2023-03-01T05:01:19;32.35;;;23.13;;
45049;SDS011;61798;48.048;-1.928;2023-03-01T05:03:27;34.03;;;22.90;;
45049;SDS011;61798;48.048;-1.928;2023-03-01T05:05:34;35.03;;;22.92;;
45049;SDS011;61798;48.048;-1.928;2023-03-01T05:07:42;36.92;;;24.23;;
45049;SDS011;61798;48.048;-1.928;2023-03-01T05:09:48;32.50;;;23.13;;
45049;SDS011;61798;48.048;-1.928;2023-03-01T05:11:55;34.40;;;23.00;;
45049;SDS011;61798;48.048;-1.928;2023-03-01T05:14:11;32.45;;;22.08;;
45049;SDS011;61798;48.048;-1.928;2023-03-01T05:16:21;34.08;;;22.15;;
45049;SDS011;61798;48.048;-1.928;2023-03-01T05:18:27;33.25;;;23.13;;
45049;SDS011;61798;48.048;-1.928;2023-03-01T05:20:37;29.00;;;21.02;;
45049;SDS011;61798;48.048;-1.928;2023-03-01T05:22:43;31.38;;;21.55;;
45049;SDS011;61798;48.048;-1.928;2023-03-01T05:24:56;31.17;;;21.70;;
45049;SDS011;61798;48.048;-1.928;2023-03-01T05:27:03;31.73;;;22.40;;
45049;SDS011;61798;48.048;-1.928;2023-03-01T05:29:11;32.28;;;21.75;;
45049;SDS011;61798;48.048;-1.928;2023-03-01T05:31:19;31.73;;;20.85;;
45049;SDS011;61798;48.048;-1.928;2023-03-01T05:33:25;29.60;;;20.70;;
45049;SDS011;61798;48.048;-1.928;2023-03-01T05:35:32;32.83;;;21.88;;
45049;SDS011;61798;48.048;-1.928;2023-03-01T05:37:48;32.80;;;21.33;;
45049;SDS011;61798;48.048;-1.928;2023-03-01T05:39:55;31.98;;;20.40;;
45049;SDS011;61798;48.048;-1.928;2023-03-01T05:42:02;28.02;;;20.77;;
45049;SDS011;61798;48.048;-1.928;2023-03-01T05:44:08;31.48;;;20.73;;
45049;SDS011;61798;48.048;-1.928;2023-03-01T05:46:20;29.40;;;21.40;;
45049;SDS011;61798;48.048;-1.928;2023-03-01T05:48:33;29.83;;;20.40;;
45049;SDS011;61798;48.048;-1.928;2023-03-01T05:50:43;33.72;;;20.40;;
45049;SDS011;61798;48.048;-1.928;2023-03-01T05:52:51;29.63;;;20.50;;
45049;SDS011;61798;48.048;-1.928;2023-03-01T05:55:02;33.03;;;20.98;;
45049;SDS011;61798;48.048;-1.928;2023-03-01T05:57:10;28.15;;;20.83;;
45049;SDS011;61798;48.048;-1.928;2023-03-01T05:59:16;29.33;;;19.83;;
45049;SDS011;61798;48.048;-1.928;2023-03-01T06:01:24;31.70;;;20.48;;
45049;SDS011;61798;48.048;-1.928;2023-03-01T06:03:31;30.90;;;21.77;;
45049;SDS011;61798;48.048;-1.928;2023-03-01T06:05:43;26.77;;;19.15;;
45049;SDS011;61798;48.048;-1.928;2023-03-01T06:07:54;27.45;;;19.85;;
45049;SDS011;61798;48.048;-1.928;2023-03-01T06:10:14;29.13;;;19.80;;
45049;SDS011;61798;48.048;-1.928;2023-03-01T06:12:41;30.98;;;19.45;;
45049;SDS011;61798;48.048;-1.928;2023-03-01T06:15:01;27.50;;;18.75;;
45049;SDS011;61798;48.048;-1.928;2023-03-01T06:17:20;25.52;;;18.42;;
45049;SDS011;61798;48.048;-1.928;2023-03-01T06:19:37;32.08;;;19.45;;
45049;SDS011;61798;48.048;-1.928;2023-03-01T06:21:56;26.60;;;18.25;;
45049;SDS011;61798;48.048;-1.928;2023-03-01T06:24:03;29.60;;;20.42;;
45049;SDS011;61798;48.048;-1.928;2023-03-01T06:26:13;28.63;;;19.35;;
45049;SDS011;61798;48.048;-1.928;2023-03-01T06:28:19;31.10;;;20.52;;
45049;SDS011;61798;48.048;-1.928;2023-03-01T06:30:31;30.10;;;20.30;;
45049;SDS011;61798;48.048;-1.928;2023-03-01T06:32:38;29.30;;;19.13;;
45049;SDS011;61798;48.048;-1.928;2023-03-01T06:34:47;29.10;;;19.20;;
45049;SDS011;61798;48.048;-1.928;2023-03-01T06:36:53;32.13;;;19.80;;
45049;SDS011;61798;48.048;-1.928;2023-03-01T06:39:00;31.02;;;18.95;;
45049;SDS011;61798;48.048;-1.928;2023-03-01T06:41:07;28.23;;;18.13;;
45049;SDS011;61798;48.048;-1.928;2023-03-01T06:43:18;27.45;;;19.13;;
45049;SDS011;61798;48.048;-1.928;2023-03-01T06:45:25;28.73;;;18.77;;
45049;SDS011;61798;48.048;-1.928;2023-03-01T06:47:34;28.50;;;17.85;;
45049;SDS011;61798;48.048;-1.928;2023-03-01T06:49:41;28.70;;;18.70;;
45049;SDS011;61798;48.048;-1.928;2023-03-01T06:51:48;28.60;;;18.98;;
45049;SDS011;61798;48.048;-1.928;2023-03-01T06:53:58;27.40;;;19.02;;
45049;SDS011;61798;48.048;-1.928;2023-03-01T06:56:05;35.78;;;20.30;;
45049;SDS011;61798;48.048;-1.928;2023-03-01T06:58:12;32.45;;;20.15;;
45049;SDS011;61798;48.048;-1.928;2023-03-01T07:00:24;28.02;;;18.23;;
45049;SDS011;61798;48.048;-1.928;2023-03-01T07:02:31;31.27;;;21.30;;
45049;SDS011;61798;48.048;-1.928;2023-03-01T07:04:42;82.32;;;43.28;;
45049;SDS011;61798;48.048;-1.928;2023-03-01T07:06:48;62.92;;;36.33;;
45049;SDS011;61798;48.048;-1.928;2023-03-01T07:09:02;49.33;;;30.75;;
45049;SDS011;61798;48.048;-1.928;2023-03-01T07:11:09;30.50;;;21.38;;
45049;SDS011;61798;48.048;-1.928;2023-03-01T07:13:15;34.55;;;22.73;;
45049;SDS011;61798;48.048;-1.928;2023-03-01T07:15:21;31.80;;;21.90;;
45049;SDS011;61798;48.048;-1.928;2023-03-01T07:17:27;29.27;;;19.70;;
45049;SDS011;61798;48.048;-1.928;2023-03-01T07:19:34;29.65;;;21.17;;
45049;SDS011;61798;48.048;-1.928;2023-03-01T07:21:40;30.50;;;21.08;;
45049;SDS011;61798;48.048;-1.928;2023-03-01T07:23:47;30.08;;;18.70;;
45049;SDS011;61798;48.048;-1.928;2023-03-01T07:25:54;26.48;;;18.80;;
45049;SDS011;61798;48.048;-1.928;2023-03-01T07:28:08;26.38;;;17.55;;
45049;SDS011;61798;48.048;-1.928;2023-03-01T07:30:16;28.08;;;17.50;;
45049;SDS011;61798;48.048;-1.928;2023-03-01T07:32:26;30.15;;;19.23;;
45049;SDS011;61798;48.048;-1.928;2023-03-01T07:34:32;33.40;;;22.63;;
45049;SDS011;61798;48.048;-1.928;2023-03-01T07:36:38;33.40;;;23.13;;
45049;SDS011;61798;48.048;-1.928;2023-03-01T07:38:49;28.40;;;20.33;;
45049;SDS011;61798;48.048;-1.928;2023-03-01T07:40:59;30.90;;;20.52;;
45049;SDS011;61798;48.048;-1.928;2023-03-01T07:43:07;26.35;;;17.45;;
45049;SDS011;61798;48.048;-1.928;2023-03-01T07:45:13;23.85;;;16.30;;
45049;SDS011;61798;48.048;-1.928;2023-03-01T07:47:19;26.40;;;16.50;;
45049;SDS011;61798;48.048;-1.928;2023-03-01T07:49:25;25.85;;;16.25;;
45049;SDS011;61798;48.048;-1.928;2023-03-01T07:51:34;24.85;;;16.15;;
45049;SDS011;61798;48.048;-1.928;2023-03-01T07:53:40;27.02;;;16.73;;
45049;SDS011;61798;48.048;-1.928;2023-03-01T07:55:46;23.58;;;15.68;;
45049;SDS011;61798;48.048;-1.928;2023-03-01T07:57:52;25.98;;;16.70;;
45049;SDS011;61798;48.048;-1.928;2023-03-01T07:59:58;24.88;;;15.52;;
45049;SDS011;61798;48.048;-1.928;2023-03-01T08:02:05;23.75;;;15.65;;
45049;SDS011;61798;48.048;-1.928;2023-03-01T08:04:11;29.58;;;18.65;;
45049;SDS011;61798;48.048;-1.928;2023-03-01T08:06:17;23.92;;;15.18;;
45049;SDS011;61798;48.048;-1.928;2023-03-01T08:08:24;24.90;;;16.63;;
45049;SDS011;61798;48.048;-1.928;2023-03-01T08:10:30;24.30;;;15.73;;
45049;SDS011;61798;48.048;-1.928;2023-03-01T08:12:36;26.30;;;16.35;;
45049;SDS011;61798;48.048;-1.928;2023-03-01T08:14:42;34.60;;;21.58;;
45049;SDS011;61798;48.048;-1.928;2023-03-01T08:16:49;32.42;;;22.52;;
45049;SDS011;61798;48.048;-1.928;2023-03-01T08:18:55;31.75;;;21.05;;
45049;SDS011;61798;48.048;-1.928;2023-03-01T08:21:05;24.00;;;16.70;;
45049;SDS011;61798;48.048;-1.928;2023-03-01T08:23:13;24.98;;;16.48;;
45049;SDS011;61798;48.048;-1.928;2023-03-01T08:25:19;26.17;;;17.20;;
45049;SDS011;61798;48.048;-1.928;2023-03-01T08:27:25;26.17;;;16.10;;
45049;SDS011;61798;48.048;-1.928;2023-03-01T08:29:31;26.67;;;16.73;;
45049;SDS011;61798;48.048;-1.928;2023-03-01T08:31:39;22.02;;;14.75;;
45049;SDS011;61798;48.048;-1.928;2023-03-01T08:33:46;23.15;;;15.73;;
45049;SDS011;61798;48.048;-1.928;2023-03-01T08:36:04;25.70;;;17.10;;
45049;SDS011;61798;48.048;-1.928;2023-03-01T08:38:12;23.20;;;15.02;;
45049;SDS011;61798;48.048;-1.928;2023-03-01T08:40:18;26.98;;;16.67;;
45049;SDS011;61798;48.048;-1.928;2023-03-01T08:42:24;21.13;;;15.02;;
45049;SDS011;61798;48.048;-1.928;2023-03-01T08:44:30;21.85;;;14.55;;
45049;SDS011;61798;48.048;-1.928;2023-03-01T08:46:37;21.38;;;14.98;;
45049;SDS011;61798;48.048;-1.928;2023-03-01T08:48:45;24.15;;;16.90;;
45049;SDS011;61798;48.048;-1.928;2023-03-01T08:50:52;20.48;;;14.82;;
45049;SDS011;61798;48.048;-1.928;2023-03-01T08:52:58;25.98;;;16.42;;
45049;SDS011;61798;48.048;-1.928;2023-03-01T08:55:04;25.92;;;16.45;;
45049;SDS011;61798;48.048;-1.928;2023-03-01T08:57:10;23.63;;;16.02;;
45049;SDS011;61798;48.048;-1.928;2023-03-01T08:59:18;20.33;;;14.07;;
45049;SDS011;61798;48.048;-1.928;2023-03-01T09:01:24;24.73;;;14.88;;
45049;SDS011;61798;48.048;-1.928;2023-03-01T09:03:30;23.80;;;14.48;;
45049;SDS011;61798;48.048;-1.928;2023-03-01T09:05:36;20.17;;;15.35;;
45049;SDS011;61798;48.048;-1.928;2023-03-01T09:07:42;19.92;;;13.77;;
45049;SDS011;61798;48.048;-1.928;2023-03-01T09:09:48;22.38;;;13.50;;
45049;SDS011;61798;48.048;-1.928;2023-03-01T09:11:54;26.65;;;15.30;;
45049;SDS011;61798;48.048;-1.928;2023-03-01T09:14:00;22.52;;;14.95;;
45049;SDS011;61798;48.048;-1.928;2023-03-01T09:16:07;22.67;;;13.70;;
45049;SDS011;61798;48.048;-1.928;2023-03-01T09:18:13;22.88;;;15.52;;
45049;SDS011;61798;48.048;-1.928;2023-03-01T09:20:19;23.00;;;13.75;;
45049;SDS011;61798;48.048;-1.928;2023-03-01T09:22:26;24.05;;;16.38;;
45049;SDS011;61798;48.048;-1.928;2023-03-01T09:24:32;26.52;;;17.38;;
45049;SDS011;61798;48.048;-1.928;2023-03-01T09:26:38;20.90;;;14.82;;
45049;SDS011;61798;48.048;-1.928;2023-03-01T09:28:44;20.30;;;14.18;;
45049;SDS011;61798;48.048;-1.928;2023-03-01T09:30:51;24.42;;;15.25;;
45049;SDS011;61798;48.048;-1.928;2023-03-01T09:32:57;21.48;;;14.70;;
45049;SDS011;61798;48.048;-1.928;2023-03-01T09:35:03;24.45;;;14.80;;
45049;SDS011;61798;48.048;-1.928;2023-03-01T09:37:10;21.10;;;14.07;;
45049;SDS011;61798;48.048;-1.928;2023-03-01T09:39:16;22.23;;;13.75;;
45049;SDS011;61798;48.048;-1.928;2023-03-01T09:43:55;19.40;;;13.75;;
45049;SDS011;61798;48.048;-1.928;2023-03-01T09:46:10;22.60;;;13.45;;
45049;SDS011;61798;48.048;-1.928;2023-03-01T09:48:23;21.40;;;13.30;;
45049;SDS011;61798;48.048;-1.928;2023-03-01T09:50:35;22.13;;;14.25;;
45049;SDS011;61798;48.048;-1.928;2023-03-01T09:55:08;18.88;;;12.70;;
45049;SDS011;61798;48.048;-1.928;2023-03-01T09:57:35;19.98;;;13.20;;
45049;SDS011;61798;48.048;-1.928;2023-03-01T10:02:21;18.95;;;12.38;;
45049;SDS011;61798;48.048;-1.928;2023-03-01T10:06:56;20.15;;;12.73;;
45049;SDS011;61798;48.048;-1.928;2023-03-01T10:09:22;19.13;;;12.95;;
45049;SDS011;61798;48.048;-1.928;2023-03-01T10:11:30;20.23;;;13.63;;
45049;SDS011;61798;48.048;-1.928;2023-03-01T10:13:45;22.30;;;15.00;;
45049;SDS011;61798;48.048;-1.928;2023-03-01T10:16:10;22.75;;;13.80;;
45049;SDS011;61798;48.048;-1.928;2023-03-01T10:18:22;22.00;;;14.10;;
45049;SDS011;61798;48.048;-1.928;2023-03-01T10:20:54;20.27;;;13.60;;
45049;SDS011;61798;48.048;-1.928;2023-03-01T10:23:00;23.60;;;14.90;;
45049;SDS011;61798;48.048;-1.928;2023-03-01T10:25:08;24.17;;;15.13;;
45049;SDS011;61798;48.048;-1.928;2023-03-01T10:27:24;24.13;;;15.35;;
45049;SDS011;61798;48.048;-1.928;2023-03-01T10:29:34;22.08;;;14.45;;
45049;SDS011;61798;48.048;-1.928;2023-03-01T10:31:49;28.52;;;15.05;;
45049;SDS011;61798;48.048;-1.928;2023-03-01T10:33:56;23.35;;;15.30;;
45049;SDS011;61798;48.048;-1.928;2023-03-01T10:36:04;21.30;;;14.88;;
45049;SDS011;61798;48.048;-1.928;2023-03-01T10:38:11;22.27;;;14.70;;
45049;SDS011;61798;48.048;-1.928;2023-03-01T10:40:19;20.35;;;14.45;;
45049;SDS011;61798;48.048;-1.928;2023-03-01T10:42:29;22.02;;;14.20;;
45049;SDS011;61798;48.048;-1.928;2023-03-01T10:46:53;24.25;;;15.23;;
45049;SDS011;61798;48.048;-1.928;2023-03-01T10:51:17;28.45;;;15.52;;
45049;SDS011;61798;48.048;-1.928;2023-03-01T10:55:45;27.45;;;15.52;;
45049;SDS011;61798;48.048;-1.928;2023-03-01T10:57:55;22.52;;;15.15;;
45049;SDS011;61798;48.048;-1.928;2023-03-01T11:02:29;25.92;;;16.65;;
45049;SDS011;61798;48.048;-1.928;2023-03-01T11:04:38;25.95;;;17.58;;
45049;SDS011;61798;48.048;-1.928;2023-03-01T11:06:44;24.15;;;15.07;;
45049;SDS011;61798;48.048;-1.928;2023-03-01T11:09:22;22.25;;;15.05;;
45049;SDS011;61798;48.048;-1.928;2023-03-01T11:11:33;25.70;;;16.10;;
45049;SDS011;61798;48.048;-1.928;2023-03-01T11:13:47;29.42;;;17.88;;
45049;SDS011;61798;48.048;-1.928;2023-03-01T11:16:07;41.70;;;20.70;;
45049;SDS011;61798;48.048;-1.928;2023-03-01T11:18:21;26.10;;;17.00;;
45049;SDS011;61798;48.048;-1.928;2023-03-01T11:20:35;25.70;;;17.58;;
45049;SDS011;61798;48.048;-1.928;2023-03-01T11:25:00;29.35;;;17.08;;
45049;SDS011;61798;48.048;-1.928;2023-03-01T11:29:44;28.75;;;18.23;;
45049;SDS011;61798;48.048;-1.928;2023-03-01T11:31:57;34.78;;;20.92;;
45049;SDS011;61798;48.048;-1.928;2023-03-01T11:34:17;31.63;;;20.08;;
45049;SDS011;61798;48.048;-1.928;2023-03-01T11:39:22;36.70;;;20.90;;
45049;SDS011;61798;48.048;-1.928;2023-03-01T11:41:32;27.52;;;18.00;;
45049;SDS011;61798;48.048;-1.928;2023-03-01T11:45:58;25.50;;;18.00;;
45049;SDS011;61798;48.048;-1.928;2023-03-01T11:48:07;27.65;;;19.30;;
45049;SDS011;61798;48.048;-1.928;2023-03-01T11:50:49;29.37;;;20.03;;
45049;SDS011;61798;48.048;-1.928;2023-03-01T11:55:36;28.40;;;18.60;;
45049;SDS011;61798;48.048;-1.928;2023-03-01T12:00:41;31.17;;;20.27;;
45049;SDS011;61798;48.048;-1.928;2023-03-01T12:06:09;29.13;;;20.80;;
45049;SDS011;61798;48.048;-1.928;2023-03-01T12:10:26;27.05;;;19.15;;
45049;SDS011;61798;48.048;-1.928;2023-03-01T12:12:49;28.52;;;19.42;;
45049;SDS011;61798;48.048;-1.928;2023-03-01T12:22:44;28.42;;;20.55;;
45049;SDS011;61798;48.048;-1.928;2023-03-01T12:32:54;30.23;;;21.02;;
45049;SDS011;61798;48.048;-1.928;2023-03-01T12:42:39;27.70;;;17.88;;
45049;SDS011;61798;48.048;-1.928;2023-03-01T12:47:36;27.35;;;19.23;;
45049;SDS011;61798;48.048;-1.928;2023-03-01T12:52:24;23.02;;;16.88;;
45049;SDS011;61798;48.048;-1.928;2023-03-01T12:54:44;23.92;;;16.65;;
45049;SDS011;61798;48.048;-1.928;2023-03-01T12:56:52;21.27;;;14.05;;
45049;SDS011;61798;48.048;-1.928;2023-03-01T13:01:45;20.58;;;14.73;;
45049;SDS011;61798;48.048;-1.928;2023-03-01T13:06:15;20.38;;;14.68;;
45049;SDS011;61798;48.048;-1.928;2023-03-01T13:10:49;20.45;;;14.10;;
45049;SDS011;61798;48.048;-1.928;2023-03-01T13:13:10;19.70;;;13.75;;
45049;SDS011;61798;48.048;-1.928;2023-03-01T13:17:31;17.70;;;12.70;;
45049;SDS011;61798;48.048;-1.928;2023-03-01T13:19:57;20.35;;;13.77;;
45049;SDS011;61798;48.048;-1.928;2023-03-01T13:24:41;17.13;;;12.93;;
45049;SDS011;61798;48.048;-1.928;2023-03-01T13:29:25;15.45;;;11.43;;
45049;SDS011;61798;48.048;-1.928;2023-03-01T13:35:46;17.63;;;11.90;;
45049;SDS011;61798;48.048;-1.928;2023-03-01T13:37:52;13.40;;;10.07;;
45049;SDS011;61798;48.048;-1.928;2023-03-01T13:40:58;14.90;;;9.52;;
45049;SDS011;61798;48.048;-1.928;2023-03-01T13:43:26;14.70;;;10.15;;
45049;SDS011;61798;48.048;-1.928;2023-03-01T13:45:36;12.18;;;9.23;;
45049;SDS011;61798;48.048;-1.928;2023-03-01T13:47:45;14.02;;;9.95;;
45049;SDS011;61798;48.048;-1.928;2023-03-01T13:49:58;12.98;;;9.90;;
45049;SDS011;61798;48.048;-1.928;2023-03-01T13:52:05;12.77;;;9.52;;
45049;SDS011;61798;48.048;-1.928;2023-03-01T13:54:12;14.45;;;9.38;;
45049;SDS011;61798;48.048;-1.928;2023-03-01T13:56:21;11.75;;;9.35;;
45049;SDS011;61798;48.048;-1.928;2023-03-01T13:58:43;13.23;;;8.98;;
45049;SDS011;61798;48.048;-1.928;2023-03-01T14:01:04;14.35;;;10.13;;
45049;SDS011;61798;48.048;-1.928;2023-03-01T14:03:13;12.30;;;9.95;;
45049;SDS011;61798;48.048;-1.928;2023-03-01T14:05:19;13.18;;;10.07;;
45049;SDS011;61798;48.048;-1.928;2023-03-01T14:07:26;16.52;;;10.32;;
45049;SDS011;61798;48.048;-1.928;2023-03-01T14:09:37;18.30;;;12.55;;
45049;SDS011;61798;48.048;-1.928;2023-03-01T14:14:26;24.83;;;15.85;;
45049;SDS011;61798;48.048;-1.928;2023-03-01T14:17:05;20.92;;;12.15;;
45049;SDS011;61798;48.048;-1.928;2023-03-01T14:19:29;14.20;;;10.73;;
45049;SDS011;61798;48.048;-1.928;2023-03-01T14:21:36;12.43;;;10.00;;
45049;SDS011;61798;48.048;-1.928;2023-03-01T14:23:43;13.40;;;9.90;;
45049;SDS011;61798;48.048;-1.928;2023-03-01T14:25:55;12.02;;;9.38;;
45049;SDS011;61798;48.048;-1.928;2023-03-01T14:30:22;12.48;;;9.02;;
45049;SDS011;61798;48.048;-1.928;2023-03-01T14:32:39;10.43;;;8.25;;
45049;SDS011;61798;48.048;-1.928;2023-03-01T14:34:48;11.18;;;9.70;;
45049;SDS011;61798;48.048;-1.928;2023-03-01T14:36:55;16.67;;;9.60;;
45049;SDS011;61798;48.048;-1.928;2023-03-01T14:39:02;10.82;;;8.80;;
45049;SDS011;61798;48.048;-1.928;2023-03-01T14:41:23;14.05;;;9.10;;
45049;SDS011;61798;48.048;-1.928;2023-03-01T14:43:31;12.00;;;9.55;;
45049;SDS011;61798;48.048;-1.928;2023-03-01T14:45:37;14.07;;;9.75;;
45049;SDS011;61798;48.048;-1.928;2023-03-01T14:47:44;14.30;;;11.27;;
45049;SDS011;61798;48.048;-1.928;2023-03-01T14:49:51;14.90;;;10.10;;
45049;SDS011;61798;48.048;-1.928;2023-03-01T14:52:04;12.90;;;8.60;;
45049;SDS011;61798;48.048;-1.928;2023-03-01T14:56:42;21.88;;;11.93;;
45049;SDS011;61798;48.048;-1.928;2023-03-01T14:58:51;26.02;;;15.48;;
45049;SDS011;61798;48.048;-1.928;2023-03-01T15:00:59;12.80;;;9.55;;
45049;SDS011;61798;48.048;-1.928;2023-03-01T15:03:12;13.82;;;9.68;;
45049;SDS011;61798;48.048;-1.928;2023-03-01T15:05:27;12.98;;;9.88;;
45049;SDS011;61798;48.048;-1.928;2023-03-01T15:07:38;13.90;;;9.50;;
45049;SDS011;61798;48.048;-1.928;2023-03-01T15:09:46;14.55;;;9.40;;
45049;SDS011;61798;48.048;-1.928;2023-03-01T15:11:53;13.38;;;9.23;;
45049;SDS011;61798;48.048;-1.928;2023-03-01T15:13:59;12.77;;;9.10;;
45049;SDS011;61798;48.048;-1.928;2023-03-01T15:16:12;13.05;;;9.73;;
45049;SDS011;61798;48.048;-1.928;2023-03-01T15:18:25;10.15;;;8.43;;
45049;SDS011;61798;48.048;-1.928;2023-03-01T15:20:33;12.63;;;8.82;;
45049;SDS011;61798;48.048;-1.928;2023-03-01T15:22:43;16.33;;;9.85;;
45049;SDS011;61798;48.048;-1.928;2023-03-01T15:24:53;15.67;;;9.67;;
45049;SDS011;61798;48.048;-1.928;2023-03-01T15:27:00;13.68;;;9.45;;
45049;SDS011;61798;48.048;-1.928;2023-03-01T15:29:16;15.77;;;9.60;;
45049;SDS011;61798;48.048;-1.928;2023-03-01T15:31:26;13.65;;;10.00;;
45049;SDS011;61798;48.048;-1.928;2023-03-01T15:33:40;14.70;;;10.73;;
45049;SDS011;61798;48.048;-1.928;2023-03-01T15:35:53;22.33;;;10.85;;
45049;SDS011;61798;48.048;-1.928;2023-03-01T15:38:00;13.60;;;10.70;;
45049;SDS011;61798;48.048;-1.928;2023-03-01T15:40:23;16.95;;;10.93;;
45049;SDS011;61798;48.048;-1.928;2023-03-01T15:42:36;15.90;;;10.70;;
45049;SDS011;61798;48.048;-1.928;2023-03-01T15:44:43;14.95;;;10.82;;
45049;SDS011;61798;48.048;-1.928;2023-03-01T15:46:50;16.00;;;10.85;;
45049;SDS011;61798;48.048;-1.928;2023-03-01T15:48:57;15.70;;;10.15;;
45049;SDS011;61798;48.048;-1.928;2023-03-01T15:51:09;18.70;;;10.75;;
45049;SDS011;61798;48.048;-1.928;2023-03-01T15:53:20;16.98;;;11.15;;
45049;SDS011;61798;48.048;-1.928;2023-03-01T15:55:27;17.98;;;12.23;;
45049;SDS011;61798;48.048;-1.928;2023-03-01T15:57:35;16.27;;;12.00;;
45049;SDS011;61798;48.048;-1.928;2023-03-01T15:59:41;16.48;;;11.52;;
45049;SDS011;61798;48.048;-1.928;2023-03-01T16:01:49;17.80;;;11.95;;
45049;SDS011;61798;48.048;-1.928;2023-03-01T16:03:55;14.82;;;12.18;;
45049;SDS011;61798;48.048;-1.928;2023-03-01T16:06:03;18.45;;;12.00;;
45049;SDS011;61798;48.048;-1.928;2023-03-01T16:08:09;19.38;;;13.65;;
45049;SDS011;61798;48.048;-1.928;2023-03-01T16:10:15;21.17;;;14.23;;
45049;SDS011;61798;48.048;-1.928;2023-03-01T16:12:22;19.77;;;13.63;;
45049;SDS011;61798;48.048;-1.928;2023-03-01T16:14:29;20.13;;;13.52;;
45049;SDS011;61798;48.048;-1.928;2023-03-01T16:16:35;23.55;;;15.65;;
45049;SDS011;61798;48.048;-1.928;2023-03-01T16:18:42;19.63;;;14.55;;
45049;SDS011;61798;48.048;-1.928;2023-03-01T16:20:49;21.23;;;15.00;;
45049;SDS011;61798;48.048;-1.928;2023-03-01T16:22:58;21.17;;;15.75;;
45049;SDS011;61798;48.048;-1.928;2023-03-01T16:25:05;27.90;;;16.17;;
45049;SDS011;61798;48.048;-1.928;2023-03-01T16:27:13;25.75;;;16.75;;
45049;SDS011;61798;48.048;-1.928;2023-03-01T16:29:20;24.65;;;17.95;;
45049;SDS011;61798;48.048;-1.928;2023-03-01T16:31:26;24.77;;;17.30;;
45049;SDS011;61798;48.048;-1.928;2023-03-01T16:33:34;27.90;;;19.90;;
45049;SDS011;61798;48.048;-1.928;2023-03-01T16:35:40;27.88;;;18.95;;
45049;SDS011;61798;48.048;-1.928;2023-03-01T16:37:46;34.03;;;20.05;;
45049;SDS011;61798;48.048;-1.928;2023-03-01T16:39:53;23.83;;;17.17;;
45049;SDS011;61798;48.048;-1.928;2023-03-01T16:41:59;24.98;;;17.88;;
45049;SDS011;61798;48.048;-1.928;2023-03-01T16:44:06;23.17;;;17.25;;
45049;SDS011;61798;48.048;-1.928;2023-03-01T16:46:25;22.63;;;16.90;;
45049;SDS011;61798;48.048;-1.928;2023-03-01T16:48:33;26.58;;;18.02;;